Time;durP1;ratioP1;P1;durP2;ratioP2;P2;SDS_P1;SDS_P2;PMS_P1;PMS_P2;Temp;Humidity;BMP_temperature;BMP_pressure;BME280_temperature;BME280_humidity;BME280_pressure;Samples;Min_cycle;Max_cycle;Signal;HPM_P1;HPM_P2
2021/12/27 00:00:13;;;;;;;13.43;4.90;;;0.40;94.40;;;;;;4219403;28;20106;-86
2021/12/27 00:02:15;;;;;;;12.27;5.38;;;-1.00;93.60;;;;;;4235557;28;20142;-85
2021/12/27 00:04:17;;;;;;;11.45;4.85;;;0.10;94.40;;;;;;4218828;28;20420;-86
2021/12/27 00:06:24;;;;;;;13.88;5.75;;;-0.40;94.20;;;;;;4253805;27;20506;-86
2021/12/27 00:08:26;;;;;;;8.70;4.47;;;-1.50;94.20;;;;;;4236193;28;20468;-85
2021/12/27 00:10:28;;;;;;;13.50;5.43;;;-0.10;94.40;;;;;;4218483;28;20052;-86
2021/12/27 00:12:29;;;;;;;13.20;5.22;;;-2.10;93.90;;;;;;4218497;28;20051;-85
2021/12/27 00:14:30;;;;;;;10.55;4.85;;;-0.20;94.40;;;;;;4239172;27;20058;-86
2021/12/27 00:16:31;;;;;;;15.02;5.05;;;-1.20;93.90;;;;;;4270779;27;20520;-86
2021/12/27 00:18:35;;;;;;;14.30;5.00;;;-1.10;94.30;;;;;;4236078;28;20122;-85
2021/12/27 00:20:35;;;;;;;11.45;4.78;;;-1.10;94.50;;;;;;4253232;27;20047;-85
2021/12/27 00:22:38;;;;;;;11.68;5.47;;;-0.60;94.80;;;;;;4236233;28;20079;-86
2021/12/27 00:24:38;;;;;;;10.65;4.45;;;-1.50;94.20;;;;;;4252931;27;20046;-86
2021/12/27 00:26:39;;;;;;;9.65;4.88;;;-0.40;94.60;;;;;;4236312;28;20043;-85
2021/12/27 00:28:41;;;;;;;9.98;4.90;;;-1.00;94.70;;;;;;4253743;27;20054;-85
2021/12/27 00:30:43;;;;;;;9.10;4.47;;;-0.50;94.50;;;;;;4236820;28;20079;-85
2021/12/27 00:32:46;;;;;;;12.88;5.40;;;-0.80;94.80;;;;;;4236201;28;20139;-86
2021/12/27 00:34:48;;;;;;;14.63;5.75;;;0.40;94.80;;;;;;4236355;28;20075;-86
2021/12/27 00:36:49;;;;;;;11.52;5.35;;;-1.30;94.60;;;;;;4253170;27;20081;-86
2021/12/27 00:38:50;;;;;;;11.23;4.63;;;-1.50;94.70;;;;;;4236287;28;20047;-86
2021/12/27 00:40:52;;;;;;;14.48;5.93;;;-1.20;94.80;;;;;;4253599;27;20206;-86
2021/12/27 00:42:53;;;;;;;14.38;5.22;;;-0.10;95.50;;;;;;4271883;27;20042;-86
2021/12/27 00:44:54;;;;;;;12.20;5.10;;;-1.10;95.10;;;;;;4235832;28;20122;-86
2021/12/27 00:46:55;;;;;;;14.63;4.97;;;-0.50;94.90;;;;;;4236745;28;20059;-86
2021/12/27 00:48:58;;;;;;;11.38;4.63;;;-0.40;95.00;;;;;;4272487;27;20051;-86
2021/12/27 00:50:59;;;;;;;15.40;5.72;;;-0.80;95.00;;;;;;4272106;27;20486;-85
2021/12/27 00:53:02;;;;;;;13.27;4.88;;;0.00;95.30;;;;;;4237099;28;20113;-85
2021/12/27 00:55:05;;;;;;;12.05;4.97;;;-1.20;94.60;;;;;;4272472;27;20047;-85
2021/12/27 00:57:08;;;;;;;12.18;4.90;;;-1.30;95.00;;;;;;4254109;27;20086;-85
2021/12/27 00:59:14;;;;;;;12.55;5.00;;;0.10;95.40;;;;;;4276561;27;20043;-85
2021/12/27 01:01:16;;;;;;;15.00;5.60;;;-1.40;95.20;;;;;;4259293;27;20591;-84
2021/12/27 01:03:20;;;;;;;13.43;5.45;;;-1.40;95.30;;;;;;4258726;27;20051;-84
2021/12/27 01:05:23;;;;;;;11.48;5.20;;;0.00;95.90;;;;;;4257752;27;20046;-85
2021/12/27 01:07:25;;;;;;;13.43;5.45;;;-0.70;95.30;;;;;;4272461;27;20042;-85
2021/12/27 01:09:50;;;;;;;10.07;4.55;;;-2.30;95.60;;;;;;4272415;27;20473;-85
2021/12/27 01:14:43;;;;;;;14.55;4.88;;;-0.30;95.60;;;;;;4202313;28;20053;-85
2021/12/27 01:16:44;;;;;;;15.43;5.63;;;-1.60;95.60;;;;;;4213163;28;20051;-86
2021/12/27 01:18:48;;;;;;;14.75;6.05;;;-1.60;95.50;;;;;;4271205;27;20049;-85
2021/12/27 01:20:56;;;;;;;11.50;4.88;;;-2.30;94.70;;;;;;4272288;27;20046;-85
2021/12/27 01:22:58;;;;;;;14.55;5.68;;;-1.60;95.10;;;;;;4271944;27;20043;-85
2021/12/27 01:25:00;;;;;;;12.50;5.55;;;-0.70;95.90;;;;;;4253662;27;20039;-85
2021/12/27 01:27:02;;;;;;;11.45;4.75;;;-0.80;95.60;;;;;;4254179;27;20104;-86
2021/12/27 01:29:07;;;;;;;11.88;5.00;;;-0.50;95.90;;;;;;4271654;27;20047;-86
2021/12/27 01:31:10;;;;;;;10.07;4.82;;;-1.00;95.40;;;;;;4236820;28;20104;-85
2021/12/27 01:33:14;;;;;;;13.00;5.93;;;-1.60;95.40;;;;;;4271914;27;20047;-85
2021/12/27 01:35:15;;;;;;;15.65;6.22;;;-0.40;95.60;;;;;;4236758;28;20042;-86
2021/12/27 01:37:18;;;;;;;12.32;5.68;;;-1.60;95.50;;;;;;4271846;27;20081;-85
2021/12/27 01:39:19;;;;;;;15.00;5.68;;;-0.30;96.30;;;;;;4236957;28;20067;-85
2021/12/27 01:41:20;;;;;;;12.38;6.05;;;-1.60;96.20;;;;;;4254497;27;20035;-86
2021/12/27 01:43:28;;;;;;;12.27;5.10;;;-1.40;96.20;;;;;;4242745;28;20044;-85
2021/12/27 01:45:30;;;;;;;12.25;5.20;;;-0.50;96.10;;;;;;4259304;27;20070;-86
2021/12/27 01:47:35;;;;;;;14.02;5.35;;;-1.70;95.80;;;;;;4258784;27;20051;-87
2021/12/27 01:49:37;;;;;;;18.38;5.93;;;-1.90;95.80;;;;;;4272706;27;20048;-85
2021/12/27 01:51:40;;;;;;;16.52;6.80;;;-1.20;95.90;;;;;;4253489;27;20609;-86
2021/12/27 01:53:44;;;;;;;19.33;5.63;;;-1.60;95.80;;;;;;4237172;28;20176;-86
2021/12/27 01:55:46;;;;;;;12.88;5.07;;;-0.70;96.10;;;;;;4254721;27;20466;-86
2021/12/27 01:57:48;;;;;;;13.82;5.70;;;-0.90;96.10;;;;;;4238164;28;20462;-86
2021/12/27 01:59:52;;;;;;;13.50;5.47;;;-1.20;96.10;;;;;;4255288;27;20047;-86
2021/12/27 02:01:54;;;;;;;12.65;5.50;;;-1.60;95.50;;;;;;4238398;28;20105;-86
2021/12/27 02:03:57;;;;;;;16.05;5.90;;;-1.60;95.60;;;;;;4255876;27;20043;-86
2021/12/27 02:06:00;;;;;;;13.73;5.88;;;-1.60;96.00;;;;;;4273542;27;20050;-86
2021/12/27 02:08:01;;;;;;;12.55;5.47;;;-0.60;96.70;;;;;;4273600;27;20043;-86
2021/12/27 02:10:02;;;;;;;14.02;5.25;;;-0.80;96.20;;;;;;4254401;27;20043;-86
2021/12/27 02:12:04;;;;;;;14.00;5.75;;;-1.60;95.70;;;;;;4272549;27;20050;-86
2021/12/27 02:14:06;;;;;;;10.15;5.85;;;-1.50;95.80;;;;;;4253316;27;20035;-85
2021/12/27 02:16:07;;;;;;;15.88;5.65;;;-0.10;96.20;;;;;;4220411;28;20044;-86
2021/12/27 02:18:09;;;;;;;13.52;5.70;;;-1.60;95.50;;;;;;4255263;27;20040;-86
2021/12/27 02:20:21;;;;;;;16.80;5.35;;;-2.10;95.60;;;;;;4237258;28;20051;-86
2021/12/27 02:22:23;;;;;;;15.35;5.97;;;-0.40;96.00;;;;;;4219158;28;20063;-86
2021/12/27 02:24:24;;;;;;;12.48;5.07;;;-1.40;96.20;;;;;;4254977;27;20054;-85
2021/12/27 02:26:26;;;;;;;13.95;5.95;;;-1.20;95.80;;;;;;4252761;27;20039;-86
2021/12/27 02:28:29;;;;;;;18.85;5.28;;;-1.50;96.20;;;;;;4236840;28;20047;-86
2021/12/27 02:30:33;;;;;;;11.93;6.25;;;-1.20;96.20;;;;;;4253715;27;20046;-85
2021/12/27 02:32:52;;;;;;;15.18;5.38;;;-1.50;95.60;;;;;;4236657;28;20039;-86
2021/12/27 02:34:52;;;;;;;18.40;5.45;;;-1.50;95.70;;;;;;4254137;27;20069;-86
2021/12/27 02:36:54;;;;;;;16.50;6.93;;;-1.50;96.80;;;;;;4253973;27;20079;-85
2021/12/27 02:38:55;;;;;;;16.20;7.15;;;-1.40;96.50;;;;;;4252251;27;20058;-86
2021/12/27 02:40:57;;;;;;;13.23;5.55;;;-0.80;96.10;;;;;;4251621;27;20098;-85
2021/12/27 02:43:08;;;;;;;15.45;6.38;;;-0.80;96.40;;;;;;4254225;27;20448;-85
2021/12/27 02:45:10;;;;;;;15.48;6.47;;;-0.50;96.70;;;;;;4253688;28;20043;-86
2021/12/27 02:47:15;;;;;;;14.70;5.88;;;-1.70;96.20;;;;;;4252489;28;20111;-85
2021/12/27 02:49:17;;;;;;;13.43;6.10;;;-0.10;96.20;;;;;;4253519;28;20069;-86
2021/12/27 02:51:19;;;;;;;13.35;6.13;;;-1.80;95.90;;;;;;4235638;28;20069;-86
2021/12/27 02:53:23;;;;;;;14.38;6.35;;;-1.40;96.20;;;;;;4253319;28;20122;-86
2021/12/27 02:55:26;;;;;;;13.63;5.13;;;-0.50;96.40;;;;;;4235060;28;20047;-86
2021/12/27 02:57:29;;;;;;;14.30;6.10;;;-0.70;96.50;;;;;;4235048;28;20134;-85
2021/12/27 02:59:37;;;;;;;13.23;5.55;;;-1.40;96.40;;;;;;4218617;28;20109;-86
2021/12/27 03:01:38;;;;;;;13.63;6.15;;;-1.40;95.90;;;;;;4235946;28;20047;-85
2021/12/27 03:03:40;;;;;;;17.73;6.75;;;-1.00;96.20;;;;;;4234782;28;20069;-85
2021/12/27 03:05:43;;;;;;;13.05;5.72;;;-0.80;96.40;;;;;;4253371;28;20094;-86
2021/12/27 03:07:48;;;;;;;15.07;6.45;;;-1.30;96.20;;;;;;4253016;28;20042;-86
2021/12/27 03:09:49;;;;;;;14.02;5.88;;;-1.00;96.50;;;;;;4217851;28;20111;-86
2021/12/27 03:11:50;;;;;;;15.65;5.95;;;-0.50;96.90;;;;;;4217906;28;20160;-86
2021/12/27 03:13:51;;;;;;;13.00;6.07;;;-0.40;96.60;;;;;;4252146;28;20108;-86
2021/12/27 03:16:10;;;;;;;13.80;5.63;;;-1.70;96.20;;;;;;4217581;28;20055;-86
2021/12/27 03:18:12;;;;;;;17.73;6.97;;;-1.30;96.30;;;;;;4218081;28;20056;-85
2021/12/27 03:20:15;;;;;;;19.00;7.15;;;-1.30;96.40;;;;;;4217598;28;20052;-86
2021/12/27 03:22:17;;;;;;;13.80;6.25;;;-1.30;96.40;;;;;;4234475;28;20122;-86
2021/12/27 03:24:18;;;;;;;18.35;6.30;;;-1.50;96.40;;;;;;4217151;28;20080;-86
2021/12/27 03:26:23;;;;;;;14.38;6.47;;;-0.90;96.70;;;;;;4253057;28;20050;-85
2021/12/27 03:28:26;;;;;;;16.90;5.97;;;-1.30;96.50;;;;;;4234166;28;20058;-86
2021/12/27 03:30:31;;;;;;;15.95;6.53;;;-0.50;96.50;;;;;;4251833;28;20043;-85
2021/12/27 03:32:33;;;;;;;15.50;6.22;;;0.10;97.00;;;;;;4252780;28;20078;-86
2021/12/27 03:34:41;;;;;;;16.65;5.80;;;-1.50;96.60;;;;;;4252380;28;20100;-86
2021/12/27 03:36:43;;;;;;;15.55;6.55;;;0.20;97.10;;;;;;4233610;28;20109;-85
2021/12/27 03:38:52;;;;;;;20.10;6.53;;;0.00;97.10;;;;;;4233821;28;20053;-85
2021/12/27 03:40:53;;;;;;;17.33;6.70;;;-0.60;97.00;;;;;;4252450;27;20399;-85
2021/12/27 03:42:56;;;;;;;16.38;6.10;;;-1.20;96.90;;;;;;4220776;28;20098;-86
2021/12/27 03:44:56;;;;;;;14.45;6.40;;;-1.50;97.00;;;;;;4219655;28;20101;-86
2021/12/27 03:46:58;;;;;;;16.13;6.18;;;0.20;97.00;;;;;;4237296;28;20051;-86
2021/12/27 03:49:01;;;;;;;17.52;6.47;;;-0.40;97.20;;;;;;4218064;28;20044;-85
2021/12/27 03:51:06;;;;;;;18.10;6.85;;;0.20;97.20;;;;;;4255672;27;20067;-85
2021/12/27 03:53:08;;;;;;;14.55;6.60;;;-0.50;97.00;;;;;;4237267;28;20048;-86
2021/12/27 03:55:10;;;;;;;15.18;6.10;;;0.20;97.30;;;;;;4255601;27;20032;-85
2021/12/27 03:57:11;;;;;;;12.73;6.35;;;-1.10;96.90;;;;;;4255434;27;20039;-86
2021/12/27 03:59:24;;;;;;;13.70;6.15;;;-1.30;96.90;;;;;;4237370;28;20159;-85
2021/12/27 04:01:26;;;;;;;14.45;6.28;;;-1.40;96.60;;;;;;4255451;27;20047;-86
2021/12/27 04:03:32;;;;;;;16.58;6.70;;;-1.50;96.70;;;;;;4254709;27;20043;-85
2021/12/27 04:05:34;;;;;;;13.57;5.50;;;-1.80;97.20;;;;;;4236475;28;20035;-86
2021/12/27 04:07:38;;;;;;;16.60;5.95;;;-0.40;97.10;;;;;;4236514;28;20062;-85
2021/12/27 04:09:41;;;;;;;16.13;7.63;;;-1.10;97.10;;;;;;4236691;28;20495;-86
2021/12/27 04:11:43;;;;;;;17.95;6.78;;;-0.10;97.60;;;;;;4254810;27;20047;-85
2021/12/27 04:13:45;;;;;;;17.13;6.43;;;-1.30;97.40;;;;;;4220065;28;20052;-85
2021/12/27 04:15:46;;;;;;;15.75;6.13;;;-0.30;97.90;;;;;;4219585;28;20044;-86
2021/12/27 04:17:48;;;;;;;16.20;7.15;;;-0.20;97.50;;;;;;4254831;27;20050;-85
2021/12/27 04:19:49;;;;;;;13.70;5.45;;;-0.10;97.60;;;;;;4236675;28;20072;-85
2021/12/27 04:21:50;;;;;;;18.05;6.40;;;0.10;97.40;;;;;;4236364;28;20138;-85
2021/12/27 04:23:52;;;;;;;19.15;6.95;;;0.10;97.60;;;;;;4220175;28;20079;-85
2021/12/27 04:25:53;;;;;;;14.95;6.00;;;0.40;97.40;;;;;;4235903;28;20092;-85
2021/12/27 04:27:54;;;;;;;15.02;7.18;;;;;;;;;;4241597;28;20043;-85
2021/12/27 04:29:57;;;;;;;19.20;7.18;;;-1.00;96.70;;;;;;4249056;28;20075;-85
2021/12/27 04:31:59;;;;;;;15.30;6.63;;;-0.20;97.60;;;;;;4244187;28;20052;-86
2021/12/27 04:34:00;;;;;;;15.27;6.22;;;-1.00;97.60;;;;;;4219744;28;20123;-85
2021/12/27 04:36:02;;;;;;;15.43;6.97;;;-1.40;97.70;;;;;;4236364;28;20069;-85
2021/12/27 04:38:04;;;;;;;15.20;6.72;;;-1.00;97.80;;;;;;4235208;28;20047;-85
2021/12/27 04:40:08;;;;;;;14.98;7.05;;;0.10;98.40;;;;;;4235249;28;20135;-85
2021/12/27 04:42:09;;;;;;;16.33;6.82;;;-1.00;97.60;;;;;;4218857;28;20369;-85
2021/12/27 04:44:11;;;;;;;20.40;6.90;;;-0.10;97.80;;;;;;4236387;28;20127;-85
2021/12/27 04:46:13;;;;;;;16.23;6.60;;;-0.30;98.20;;;;;;4218602;28;20051;-85
2021/12/27 04:48:14;;;;;;;16.30;6.97;;;0.00;98.50;;;;;;4236924;28;20088;-85
2021/12/27 04:50:16;;;;;;;19.67;7.10;;;0.30;98.20;;;;;;4218483;28;20234;-85
2021/12/27 04:52:18;;;;;;;17.67;6.97;;;-1.00;98.30;;;;;;4234048;28;20151;-85
2021/12/27 04:54:20;;;;;;;14.93;6.28;;;-1.50;98.40;;;;;;4252365;27;20080;-86
2021/12/27 04:56:22;;;;;;;14.73;7.05;;;0.00;98.70;;;;;;4252374;27;20140;-85
2021/12/27 04:58:23;;;;;;;18.63;7.40;;;-1.10;98.20;;;;;;4235384;28;20051;-85
2021/12/27 05:00:27;;;;;;;22.15;7.72;;;0.50;98.10;;;;;;4253555;27;20043;-85
2021/12/27 05:02:29;;;;;;;16.52;6.10;;;-0.90;98.30;;;;;;4235525;28;20081;-85
2021/12/27 05:04:30;;;;;;;18.05;6.47;;;-1.70;98.10;;;;;;4252385;27;20131;-86
2021/12/27 05:06:31;;;;;;;14.77;6.95;;;-0.60;98.40;;;;;;4253711;27;20049;-85
2021/12/27 05:08:33;;;;;;;16.17;7.28;;;0.50;98.40;;;;;;4253729;27;20035;-85
2021/12/27 05:10:35;;;;;;;19.50;6.68;;;-0.50;98.20;;;;;;4256540;27;20047;-86
2021/12/27 05:12:37;;;;;;;15.38;7.35;;;-0.80;98.80;;;;;;4256009;27;20590;-85
2021/12/27 05:14:38;;;;;;;19.02;6.45;;;0.10;98.60;;;;;;4253915;27;20039;-86
2021/12/27 05:16:41;;;;;;;20.95;7.68;;;-0.80;98.10;;;;;;4234749;28;20040;-86
2021/12/27 05:18:43;;;;;;;17.30;7.85;;;-0.80;98.10;;;;;;4235384;28;20044;-86
2021/12/27 05:20:45;;;;;;;16.67;6.60;;;-0.90;98.50;;;;;;4251869;27;20047;-86
2021/12/27 05:22:47;;;;;;;20.23;7.30;;;-1.50;98.50;;;;;;4251525;27;20118;-86
2021/12/27 05:24:48;;;;;;;19.80;7.40;;;0.10;98.60;;;;;;4252732;27;20039;-86
2021/12/27 05:26:50;;;;;;;19.65;6.93;;;0.20;98.50;;;;;;4234475;28;20043;-87
2021/12/27 05:28:52;;;;;;;13.43;6.45;;;-1.20;98.60;;;;;;4234406;28;20495;-86
2021/12/27 05:30:54;;;;;;;17.40;7.07;;;-0.30;98.50;;;;;;4251814;27;20045;-87
2021/12/27 05:32:55;;;;;;;15.27;6.88;;;-0.60;98.40;;;;;;4251173;27;20046;-87
2021/12/27 05:34:55;;;;;;;18.90;7.18;;;-0.70;98.60;;;;;;4252483;27;20078;-87
2021/12/27 05:36:57;;;;;;;18.90;7.38;;;0.30;98.90;;;;;;4233438;28;20055;-87
2021/12/27 05:38:58;;;;;;;19.48;7.85;;;-1.00;98.60;;;;;;4261068;27;20050;-86
2021/12/27 05:41:00;;;;;;;20.30;8.07;;;-0.30;98.60;;;;;;4222257;28;20515;-86
2021/12/27 05:43:02;;;;;;;19.83;7.00;;;-0.70;98.60;;;;;;4251803;27;20088;-86
2021/12/27 05:45:05;;;;;;;20.40;7.45;;;0.70;98.50;;;;;;4251642;27;20050;-86
2021/12/27 05:47:06;;;;;;;17.67;6.78;;;-0.70;98.20;;;;;;4216583;28;20455;-86
2021/12/27 05:49:07;;;;;;;16.77;6.95;;;-0.60;98.90;;;;;;4216739;28;20079;-86
2021/12/27 05:51:08;;;;;;;16.40;6.97;;;-1.80;98.50;;;;;;4216560;28;20408;-86
2021/12/27 05:53:17;;;;;;;16.30;7.38;;;0.40;99.10;;;;;;4216839;28;20512;-86
2021/12/27 05:55:19;;;;;;;16.58;6.97;;;0.30;99.40;;;;;;4216561;28;20043;-86
2021/12/27 05:57:22;;;;;;;20.15;7.50;;;0.70;99.60;;;;;;4216785;28;20040;-86
2021/12/27 05:59:25;;;;;;;21.75;8.60;;;-0.60;99.30;;;;;;4233856;28;20057;-86
2021/12/27 06:01:28;;;;;;;15.98;7.03;;;-0.60;99.10;;;;;;4216382;28;20076;-86
2021/12/27 06:03:31;;;;;;;21.00;8.20;;;-0.60;98.90;;;;;;4250483;27;20043;-86
2021/12/27 06:05:32;;;;;;;18.40;7.72;;;0.00;99.20;;;;;;4251725;27;20035;-86
2021/12/27 06:07:35;;;;;;;15.27;6.75;;;0.70;99.90;;;;;;4216751;28;20063;-86
2021/12/27 06:09:36;;;;;;;21.50;7.97;;;-0.60;99.40;;;;;;4251485;27;20047;-86
2021/12/27 06:11:38;;;;;;;17.08;7.22;;;0.10;99.90;;;;;;4233717;28;20076;-86
2021/12/27 06:13:39;;;;;;;14.23;7.05;;;0.30;99.90;;;;;;4251689;27;20051;-86
2021/12/27 06:15:43;;;;;;;20.95;8.00;;;0.80;99.90;;;;;;4216957;28;20074;-86
2021/12/27 06:17:44;;;;;;;23.88;8.73;;;0.70;99.90;;;;;;4216310;28;20040;-86
2021/12/27 06:19:44;;;;;;;17.05;7.65;;;-0.10;99.90;;;;;;4233337;28;20472;-86
2021/12/27 06:21:45;;;;;;;22.00;7.97;;;0.00;99.90;;;;;;4233181;28;20054;-86
2021/12/27 06:23:46;;;;;;;17.95;7.68;;;-0.20;99.90;;;;;;4233816;28;20039;-86
2021/12/27 06:25:50;;;;;;;21.90;8.07;;;0.80;99.90;;;;;;4216379;28;20044;-86
2021/12/27 06:27:51;;;;;;;24.10;8.52;;;-0.10;99.90;;;;;;4251689;27;20039;-86
2021/12/27 06:29:53;;;;;;;20.77;8.68;;;0.30;99.90;;;;;;4215660;28;20186;-86
2021/12/27 06:31:55;;;;;;;17.20;7.88;;;0.80;99.90;;;;;;4232056;28;20048;-86
2021/12/27 06:34:00;;;;;;;22.98;9.13;;;-0.50;99.90;;;;;;4251234;27;20337;-86
2021/12/27 06:36:01;;;;;;;18.80;8.07;;;-0.50;99.90;;;;;;4233919;28;20062;-86
2021/12/27 06:38:02;;;;;;;24.83;8.25;;;0.50;99.90;;;;;;4233669;28;20063;-86
2021/12/27 06:40:04;;;;;;;22.02;8.13;;;-0.60;99.90;;;;;;4251219;27;20135;-86
2021/12/27 06:42:06;;;;;;;23.13;9.00;;;-0.60;99.90;;;;;;4249639;27;20043;-86
2021/12/27 06:44:08;;;;;;;23.40;9.70;;;-0.60;99.90;;;;;;4233975;28;20047;-86
2021/12/27 06:46:10;;;;;;;19.70;9.05;;;-0.60;99.90;;;;;;4233803;28;20039;-86
2021/12/27 06:48:11;;;;;;;21.83;8.82;;;-0.50;99.90;;;;;;4216741;28;20052;-86
2021/12/27 06:50:12;;;;;;;19.35;8.50;;;-0.60;99.90;;;;;;4255679;27;20039;-86
2021/12/27 06:52:15;;;;;;;19.58;7.85;;;-0.60;99.90;;;;;;4233854;28;20043;-86
2021/12/27 06:54:16;;;;;;;17.65;7.43;;;0.50;99.90;;;;;;4256575;28;20054;-86
2021/12/27 06:56:17;;;;;;;20.23;8.30;;;-0.60;99.90;;;;;;4256392;28;20043;-86
2021/12/27 06:58:17;;;;;;;25.38;9.18;;;-0.70;99.90;;;;;;4244601;28;20052;-86
2021/12/27 07:00:19;;;;;;;24.00;8.05;;;-0.50;99.90;;;;;;4228005;28;20083;-86
2021/12/27 07:02:20;;;;;;;26.05;9.45;;;0.80;99.90;;;;;;4217801;28;20594;-86
2021/12/27 07:04:26;;;;;;;19.73;7.63;;;-0.50;99.90;;;;;;4215757;28;20044;-86
2021/12/27 07:06:28;;;;;;;22.63;8.15;;;-0.60;99.90;;;;;;4251094;28;20035;-86
2021/12/27 07:08:30;;;;;;;23.67;9.15;;;0.00;99.90;;;;;;4216500;28;20131;-86
2021/12/27 07:10:32;;;;;;;19.73;8.30;;;0.20;99.90;;;;;;4251875;28;20050;-86
2021/12/27 07:12:33;;;;;;;20.05;7.85;;;1.00;99.90;;;;;;4257143;28;20057;-87
2021/12/27 07:14:35;;;;;;;24.45;8.48;;;-1.00;99.90;;;;;;4244568;28;20051;-87
2021/12/27 07:16:37;;;;;;;26.13;8.30;;;0.50;99.90;;;;;;4223678;28;20569;-86
2021/12/27 07:18:43;;;;;;;19.98;7.80;;;-0.50;99.90;;;;;;4239137;28;20130;-86
2021/12/27 07:20:45;;;;;;;29.50;9.18;;;0.40;99.90;;;;;;4223221;28;20056;-86
2021/12/27 07:22:47;;;;;;;19.00;7.28;;;0.10;99.90;;;;;;4222483;28;20043;-86
2021/12/27 07:24:49;;;;;;;24.02;8.48;;;-0.50;99.90;;;;;;4221981;28;20058;-86
2021/12/27 07:26:52;;;;;;;23.65;8.98;;;0.10;99.90;;;;;;4220578;28;20062;-87
2021/12/27 07:28:54;;;;;;;24.50;9.05;;;-0.40;99.90;;;;;;4239877;28;20048;-87
2021/12/27 07:30:56;;;;;;;25.50;9.60;;;0.00;99.90;;;;;;4236710;28;20143;-86
2021/12/27 07:32:58;;;;;;;26.63;8.77;;;0.70;99.90;;;;;;4221137;28;20105;-86
2021/12/27 07:34:59;;;;;;;22.60;8.32;;;-0.40;99.90;;;;;;4256707;27;20057;-86
2021/12/27 07:37:01;;;;;;;23.50;8.77;;;0.50;99.90;;;;;;4238946;28;20587;-87
2021/12/27 07:39:04;;;;;;;26.58;8.95;;;-0.50;99.90;;;;;;4254270;27;20458;-86
2021/12/27 07:41:06;;;;;;;21.17;7.90;;;0.10;99.90;;;;;;4236330;28;20475;-86
2021/12/27 07:43:07;;;;;;;21.75;8.18;;;-1.10;99.90;;;;;;4245095;28;20043;-86
2021/12/27 07:45:09;;;;;;;21.20;8.52;;;0.30;99.90;;;;;;4267469;27;20035;-86
2021/12/27 07:47:10;;;;;;;28.15;8.90;;;-0.50;99.90;;;;;;4272985;27;20051;-86
2021/12/27 07:49:15;;;;;;;21.35;8.55;;;0.40;99.90;;;;;;4271667;27;20034;-86
2021/12/27 07:51:17;;;;;;;22.60;8.50;;;-0.60;99.90;;;;;;4271704;27;20043;-86
2021/12/27 07:53:18;;;;;;;22.17;8.23;;;-0.50;99.90;;;;;;4253759;27;20057;-86
2021/12/27 07:55:19;;;;;;;23.77;8.73;;;-0.50;99.90;;;;;;4270707;27;20440;-85
2021/12/27 07:57:21;;;;;;;23.75;10.13;;;-0.50;99.90;;;;;;4235913;28;20404;-85
2021/12/27 07:59:22;;;;;;;28.45;9.40;;;0.30;99.90;;;;;;4235371;28;20047;-86
2021/12/27 08:01:24;;;;;;;24.25;9.45;;;-0.40;99.90;;;;;;4252866;27;20074;-85
2021/12/27 08:03:26;;;;;;;20.58;8.55;;;-0.20;99.90;;;;;;4235442;28;20043;-86
2021/12/27 08:05:27;;;;;;;25.08;8.45;;;-0.20;99.90;;;;;;4252496;27;20047;-86
2021/12/27 08:07:29;;;;;;;29.65;8.77;;;-0.40;99.90;;;;;;4256123;27;20051;-86
2021/12/27 08:09:30;;;;;;;29.75;8.45;;;0.40;99.90;;;;;;4246930;28;20054;-85
2021/12/27 08:11:31;;;;;;;27.05;9.35;;;-0.10;99.90;;;;;;4247187;28;20546;-86
2021/12/27 08:13:35;;;;;;;26.75;8.35;;;-0.30;99.90;;;;;;4264410;27;20054;-86
2021/12/27 08:15:37;;;;;;;22.63;9.00;;;-0.70;99.90;;;;;;4262260;27;20058;-84
2021/12/27 08:17:38;;;;;;;26.98;9.50;;;-0.40;99.90;;;;;;4259733;27;20058;-85
2021/12/27 08:19:40;;;;;;;24.65;8.70;;;-0.40;99.90;;;;;;4252552;27;20057;-86
2021/12/27 08:21:48;;;;;;;26.65;9.43;;;-0.40;99.90;;;;;;4252499;27;20100;-86
2021/12/27 08:23:52;;;;;;;25.70;8.93;;;0.60;99.90;;;;;;4252679;27;20106;-85
2021/12/27 08:25:54;;;;;;;28.90;8.85;;;-0.30;99.90;;;;;;4269788;27;20046;-85
2021/12/27 08:27:55;;;;;;;28.48;8.73;;;0.10;99.90;;;;;;4234838;28;20055;-86
2021/12/27 08:30:00;;;;;;;25.88;9.18;;;-0.30;99.90;;;;;;4271132;27;20100;-86
2021/12/27 08:32:01;;;;;;;28.40;9.85;;;-0.30;99.90;;;;;;4267585;27;20054;-86
2021/12/27 08:34:02;;;;;;;26.35;9.68;;;-0.30;99.90;;;;;;4235486;28;20505;-85
2021/12/27 08:36:04;;;;;;;25.42;9.45;;;0.90;99.90;;;;;;4217759;28;20104;-86
2021/12/27 08:38:05;;;;;;;32.53;10.05;;;-0.30;99.90;;;;;;4200964;28;20056;-86
2021/12/27 08:40:07;;;;;;;24.27;9.25;;;0.00;99.90;;;;;;4212984;28;20040;-87
2021/12/27 08:42:08;;;;;;;21.70;9.80;;;-0.20;99.90;;;;;;4224198;28;20044;-85
2021/12/27 08:44:10;;;;;;;28.13;9.77;;;0.80;99.90;;;;;;4235368;28;20051;-86
2021/12/27 08:46:13;;;;;;;22.35;8.40;;;-0.20;99.90;;;;;;4234637;28;20439;-86
2021/12/27 08:48:17;;;;;;;26.17;9.77;;;1.20;99.90;;;;;;4236129;28;20047;-86
2021/12/27 08:50:25;;;;;;;26.73;9.63;;;0.80;99.90;;;;;;4235215;28;20048;-85
2021/12/27 08:52:27;;;;;;;26.90;8.68;;;-0.50;99.90;;;;;;4241871;28;20042;-85
2021/12/27 08:54:29;;;;;;;23.02;8.80;;;1.10;99.90;;;;;;4240231;28;20040;-86
2021/12/27 08:56:31;;;;;;;28.92;9.15;;;-0.10;99.90;;;;;;4234119;28;20052;-86
2021/12/27 08:58:34;;;;;;;25.40;8.98;;;-0.80;99.90;;;;;;4231003;28;20051;-86
2021/12/27 09:00:39;;;;;;;31.08;9.98;;;-0.10;99.90;;;;;;4217732;28;20063;-86
2021/12/27 09:02:41;;;;;;;20.35;8.68;;;0.10;99.90;;;;;;4205905;28;20504;-85
2021/12/27 09:04:43;;;;;;;34.67;9.85;;;0.00;99.90;;;;;;4218226;28;20070;-86
2021/12/27 09:06:45;;;;;;;27.90;9.57;;;1.10;99.90;;;;;;4219269;28;20040;-86
2021/12/27 09:08:52;;;;;;;30.20;9.52;;;0.00;99.90;;;;;;4236963;28;20069;-86
2021/12/27 09:10:57;;;;;;;30.65;11.02;;;-0.10;99.90;;;;;;4217025;28;20067;-85
2021/12/27 09:13:00;;;;;;;35.08;10.80;;;1.30;99.90;;;;;;4234357;28;20119;-85
2021/12/27 09:15:01;;;;;;;29.30;9.63;;;0.00;99.90;;;;;;4235221;28;20072;-85
2021/12/27 09:17:05;;;;;;;26.25;10.38;;;0.00;99.90;;;;;;4234842;28;20050;-86
2021/12/27 09:19:07;;;;;;;29.60;9.02;;;0.40;99.90;;;;;;4235137;28;20036;-86
2021/12/27 09:21:08;;;;;;;33.92;10.38;;;1.40;99.90;;;;;;4233734;28;20074;-86
2021/12/27 09:23:09;;;;;;;26.63;10.00;;;0.30;99.90;;;;;;4233760;28;20048;-86
2021/12/27 09:25:13;;;;;;;24.63;8.80;;;1.10;99.90;;;;;;4236525;28;20177;-85
2021/12/27 09:27:16;;;;;;;31.88;9.55;;;0.10;99.90;;;;;;4235274;28;20050;-85
2021/12/27 09:29:17;;;;;;;29.80;9.90;;;0.70;99.90;;;;;;4234354;28;20141;-85
2021/12/27 09:31:25;;;;;;;33.88;11.85;;;-0.40;99.90;;;;;;4218161;28;20047;-85
2021/12/27 09:33:26;;;;;;;26.85;9.48;;;1.40;99.90;;;;;;4235481;28;20043;-85
2021/12/27 09:35:27;;;;;;;27.02;8.95;;;0.90;99.90;;;;;;4237151;28;20101;-86
2021/12/27 09:37:29;;;;;;;25.10;9.48;;;0.20;99.90;;;;;;4218845;28;20028;-85
2021/12/27 09:39:31;;;;;;;31.33;8.80;;;0.20;99.90;;;;;;4231356;28;20153;-85
2021/12/27 09:41:33;;;;;;;25.17;9.15;;;0.90;99.90;;;;;;4236958;28;20055;-85
2021/12/27 09:43:35;;;;;;;34.30;10.25;;;1.50;99.90;;;;;;4216075;28;20184;-84
2021/12/27 09:45:37;;;;;;;30.75;9.02;;;1.40;99.90;;;;;;4233121;28;20088;-85
2021/12/27 09:47:38;;;;;;;22.17;9.13;;;1.50;99.90;;;;;;4236594;28;20051;-84
2021/12/27 09:49:39;;;;;;;28.90;9.85;;;1.30;99.90;;;;;;4234339;28;20136;-85
2021/12/27 09:51:42;;;;;;;35.50;10.15;;;1.20;99.90;;;;;;4244408;27;20061;-84
2021/12/27 09:53:44;;;;;;;34.92;9.75;;;1.10;99.90;;;;;;4233928;28;20081;-85
2021/12/27 09:55:46;;;;;;;32.28;10.48;;;1.50;99.90;;;;;;4233740;27;20047;-85
2021/12/27 09:57:46;;;;;;;29.55;9.30;;;0.30;99.90;;;;;;4253213;27;20467;-86
2021/12/27 09:59:53;;;;;;;33.25;10.10;;;0.30;99.90;;;;;;4251751;27;20050;-85
2021/12/27 10:01:54;;;;;;;32.70;10.77;;;1.40;99.90;;;;;;4259980;27;20078;-85
2021/12/27 10:03:59;;;;;;;32.50;9.68;;;0.30;99.90;;;;;;4258144;27;20047;-85
2021/12/27 10:06:11;;;;;;;37.85;10.95;;;1.70;99.90;;;;;;4232939;28;20385;-85
2021/12/27 10:08:12;;;;;;;33.30;10.18;;;0.40;99.90;;;;;;4248864;27;20047;-85
2021/12/27 10:10:14;;;;;;;33.88;10.43;;;1.20;99.90;;;;;;4247797;27;20045;-85
2021/12/27 10:12:20;;;;;;;31.27;10.95;;;0.40;99.90;;;;;;4215786;28;20052;-86
2021/12/27 10:14:24;;;;;;;30.80;9.80;;;1.50;99.90;;;;;;4235232;28;20460;-85
2021/12/27 10:16:26;;;;;;;33.25;11.95;;;1.90;99.90;;;;;;4235493;27;20438;-85
2021/12/27 10:18:27;;;;;;;29.98;8.52;;;1.30;99.90;;;;;;4247609;27;20628;-86
2021/12/27 10:20:28;;;;;;;27.13;9.65;;;;;;;;;;4241370;27;20055;-84
2021/12/27 10:22:29;;;;;;;38.80;10.80;;;0.40;99.90;;;;;;4233719;28;20051;-86
2021/12/27 10:24:32;;;;;;;27.40;9.38;;;0.10;99.90;;;;;;4231887;28;20507;-85
2021/12/27 10:26:35;;;;;;;33.80;9.70;;;1.10;99.90;;;;;;4232580;28;20043;-85
2021/12/27 10:28:37;;;;;;;31.38;9.13;;;1.80;99.90;;;;;;4232286;28;20091;-85
2021/12/27 10:30:44;;;;;;;37.72;10.75;;;0.50;99.90;;;;;;4218060;28;20519;-85
2021/12/27 10:33:03;;;;;;;31.85;9.80;;;0.50;99.90;;;;;;4239005;27;20046;-85
2021/12/27 10:35:06;;;;;;;32.92;9.43;;;0.50;99.90;;;;;;4250141;27;20158;-86